Time;durP1;ratioP1;P1;durP2;ratioP2;P2;SDS_P1;SDS_P2;PMS_P1;PMS_P2;Temp;Humidity;BMP_temperature;BMP_pressure;BME280_temperature;BME280_humidity;BME280_pressure;Samples;Min_cycle;Max_cycle;Signal;HPM_P1;HPM_P2
2024/01/07 00:01:40;;;;;;;14.40;10.57;;;0.70;99.90;;;-0.53;100.00;101031.53;5053371;28;20212;-71
2024/01/07 00:04:10;;;;;;;16.40;10.83;;;0.60;99.90;;;-0.62;100.00;101032.03;5053398;28;20205;-71
2024/01/07 00:06:38;;;;;;;14.50;10.17;;;0.60;99.90;;;-0.63;100.00;101032.13;5053365;28;20229;-71
2024/01/07 00:09:06;;;;;;;15.70;9.97;;;0.60;99.90;;;-0.64;100.00;101027.78;5053105;28;20672;-71
2024/01/07 00:11:34;;;;;;;16.23;11.47;;;0.60;99.90;;;-0.71;100.00;101042.19;5053267;28;20583;-71
2024/01/07 00:14:03;;;;;;;16.23;11.40;;;0.50;99.90;;;-0.59;100.00;101047.66;5052978;28;20622;-71
2024/01/07 00:16:31;;;;;;;14.50;11.43;;;0.60;99.90;;;-0.75;100.00;101036.25;5053169;28;20313;-71
2024/01/07 00:18:59;;;;;;;16.70;11.33;;;0.50;99.90;;;-0.65;100.00;101041.88;5053277;28;20198;-70
2024/01/07 00:21:29;;;;;;;14.97;10.93;;;0.50;99.90;;;-0.74;100.00;101047.59;5053163;28;20210;-71
2024/01/07 00:23:57;;;;;;;16.53;12.13;;;0.50;99.90;;;-0.67;100.00;101049.84;5053226;28;20214;-71
2024/01/07 00:26:25;;;;;;;17.83;12.47;;;0.50;99.90;;;-0.63;100.00;101051.38;5053175;28;20285;-71
2024/01/07 00:28:53;;;;;;;17.57;12.03;;;0.50;99.90;;;-0.59;100.00;101047.66;5052849;28;20259;-71
2024/01/07 00:31:22;;;;;;;17.07;9.97;;;0.60;99.90;;;-0.71;100.00;101052.69;5052814;28;20683;-71
2024/01/07 00:33:50;;;;;;;14.87;11.47;;;0.50;99.90;;;-0.66;100.00;101055.94;5052924;28;20309;-71
2024/01/07 00:36:18;;;;;;;16.83;10.93;;;0.50;99.90;;;-0.75;100.00;101054.66;5053074;28;20221;-71
2024/01/07 00:38:48;;;;;;;17.67;11.07;;;0.50;99.90;;;-0.76;100.00;101060.84;5053095;28;20615;-69
2024/01/07 00:41:16;;;;;;;16.90;11.43;;;0.40;99.90;;;-0.69;100.00;101056.97;5053093;28;20241;-69
2024/01/07 00:43:44;;;;;;;17.00;11.17;;;0.50;99.90;;;-0.83;100.00;101064.72;5052960;28;20230;-70
2024/01/07 00:46:12;;;;;;;17.23;11.47;;;0.50;99.90;;;-0.70;100.00;101065.78;5052995;28;20289;-70
2024/01/07 00:48:40;;;;;;;17.53;11.50;;;0.50;99.90;;;-0.71;100.00;101058.81;5052944;28;20210;-71
2024/01/07 00:51:08;;;;;;;16.00;10.33;;;0.40;99.90;;;-0.75;100.00;101072.19;5052978;28;20259;-71
2024/01/07 00:53:36;;;;;;;15.40;10.53;;;0.50;99.90;;;-0.76;100.00;101071.38;5052913;28;20317;-71
2024/01/07 00:56:07;;;;;;;18.40;11.33;;;0.40;99.90;;;-0.77;100.00;101067.03;5052574;28;20321;-69
2024/01/07 00:58:37;;;;;;;14.83;10.13;;;0.40;99.90;;;-0.83;100.00;101077.88;5052831;28;20202;-69
2024/01/07 01:01:07;;;;;;;16.70;10.43;;;0.30;99.90;;;-0.77;100.00;101081.94;5053145;28;20302;-69
2024/01/07 01:03:35;;;;;;;15.63;10.60;;;0.40;99.90;;;-0.72;100.00;101091.28;5052724;28;20230;-69
2024/01/07 01:06:05;;;;;;;14.70;9.77;;;0.40;99.90;;;-0.74;100.00;101093.16;5052844;28;20202;-69
2024/01/07 01:08:33;;;;;;;16.60;11.17;;;0.40;99.90;;;-0.73;100.00;101092.25;5055902;28;20257;-69
2024/01/07 01:11:01;;;;;;;16.60;10.07;;;0.50;99.90;;;-0.75;100.00;101098.47;5056469;28;20240;-69
2024/01/07 01:13:31;;;;;;;15.67;10.57;;;0.50;99.90;;;-0.71;100.00;101100.03;5056341;28;20234;-69
2024/01/07 01:15:59;;;;;;;16.10;9.57;;;0.60;99.90;;;-0.74;100.00;101103.66;5056214;28;20711;-69
2024/01/07 01:18:27;;;;;;;14.80;10.27;;;0.50;99.90;;;-0.70;100.00;101113.09;5056362;28;20206;-69
2024/01/07 01:20:57;;;;;;;15.63;10.10;;;0.50;99.90;;;-0.73;100.00;101113.28;5056305;28;20725;-70
2024/01/07 01:23:28;;;;;;;13.03;9.47;;;0.50;99.90;;;-0.76;100.00;101121.31;5056148;28;20316;-70
2024/01/07 01:25:56;;;;;;;14.20;9.40;;;0.40;99.90;;;-0.77;100.00;101121.38;5056267;28;20269;-69
2024/01/07 01:28:24;;;;;;;15.03;8.83;;;0.40;99.90;;;-0.72;100.00;101119.38;5056158;28;20241;-69
2024/01/07 01:30:54;;;;;;;14.43;9.37;;;0.50;99.90;;;-0.75;100.00;101120.38;5056108;28;20214;-69
2024/01/07 01:33:22;;;;;;;15.90;10.80;;;0.50;99.90;;;-0.75;100.00;101125.63;5055674;28;20663;-69
2024/01/07 01:35:50;;;;;;;16.47;10.03;;;0.40;99.90;;;-0.76;100.00;101128.34;5055486;28;20226;-69
2024/01/07 01:38:19;;;;;;;12.80;8.87;;;0.40;99.90;;;-0.75;100.00;101130.03;5055901;28;20650;-69
2024/01/07 01:40:53;;;;;;;13.07;8.53;;;0.40;99.90;;;-0.80;100.00;101138.19;5055906;28;20202;-69
2024/01/07 01:43:25;;;;;;;14.63;8.70;;;0.40;99.90;;;-0.90;100.00;101142.19;5055813;28;20313;-70
2024/01/07 01:45:54;;;;;;;13.93;8.50;;;0.30;99.90;;;-0.93;100.00;101138.88;5055504;28;20294;-70
2024/01/07 01:48:25;;;;;;;15.80;8.60;;;0.30;99.90;;;-0.96;100.00;101146.91;5055733;28;20264;-70
2024/01/07 01:50:55;;;;;;;13.13;8.57;;;0.20;99.90;;;-1.02;100.00;101148.06;5055738;28;20195;-69
2024/01/07 01:53:24;;;;;;;12.33;8.20;;;0.20;99.90;;;-1.04;100.00;101160.44;5055286;28;20230;-70
2024/01/07 01:55:52;;;;;;;13.07;8.57;;;0.10;99.90;;;-1.05;100.00;101166.59;5055445;28;20217;-70
2024/01/07 01:58:22;;;;;;;12.07;8.13;;;0.20;99.90;;;-1.02;100.00;101163.81;5055597;28;20300;-70
2024/01/07 02:00:51;;;;;;;13.73;8.30;;;0.20;99.90;;;-1.07;100.00;101171.09;5055469;28;20301;-70
2024/01/07 02:03:21;;;;;;;11.80;8.00;;;0.30;99.90;;;-1.13;100.00;101174.03;5055432;28;20241;-70
2024/01/07 02:05:50;;;;;;;17.13;8.03;;;0.10;99.90;;;-1.02;100.00;101174.34;5055123;28;20709;-70
2024/01/07 02:08:20;;;;;;;11.30;7.70;;;0.10;99.90;;;-1.04;100.00;101177.06;5055436;28;20206;-70
2024/01/07 02:10:48;;;;;;;12.47;7.77;;;0.20;99.90;;;-1.06;100.00;101178.91;5055373;28;20634;-70
2024/01/07 02:13:16;;;;;;;13.23;8.13;;;0.30;99.90;;;-1.12;100.00;101179.19;5055246;28;20316;-70
2024/01/07 02:15:44;;;;;;;11.83;7.67;;;0.10;99.90;;;-1.09;100.00;101178.19;5055296;28;20632;-70
2024/01/07 02:18:13;;;;;;;13.77;7.50;;;0.10;99.90;;;-1.03;100.00;101178.72;5054628;28;20228;-70
2024/01/07 02:20:42;;;;;;;11.03;7.83;;;0.20;99.90;;;-1.07;100.00;101184.25;5054824;28;20260;-70
2024/01/07 02:23:11;;;;;;;12.50;7.67;;;0.10;99.90;;;-1.00;100.00;101183.00;5054734;28;20761;-70
2024/01/07 02:25:40;;;;;;;11.20;7.57;;;0.20;99.90;;;-1.06;100.00;101184.16;5055059;28;20213;-70
2024/01/07 02:28:08;;;;;;;11.40;7.63;;;0.20;99.90;;;-1.01;100.00;101194.44;5054759;28;20672;-70
2024/01/07 02:30:37;;;;;;;12.43;8.10;;;0.20;99.90;;;-1.00;100.00;101198.78;5054931;28;20202;-70
2024/01/07 02:33:05;;;;;;;11.53;7.57;;;0.20;99.90;;;-1.08;100.00;101191.28;5054778;28;20229;-70
2024/01/07 02:35:35;;;;;;;13.13;8.60;;;0.10;99.90;;;-0.98;100.00;101191.66;5054549;28;20218;-70
2024/01/07 02:38:04;;;;;;;11.47;7.97;;;0.20;99.90;;;-1.12;100.00;101199.38;5054743;28;20236;-70
2024/01/07 02:40:32;;;;;;;14.13;9.07;;;0.10;99.90;;;-1.09;100.00;101200.06;5054448;28;20751;-70
2024/01/07 02:43:01;;;;;;;14.27;8.40;;;0.20;99.90;;;-1.04;100.00;101203.34;5054681;28;20226;-70
2024/01/07 02:45:30;;;;;;;9.63;7.87;;;0.10;99.90;;;-1.01;100.00;101207.59;5054694;28;20256;-70
2024/01/07 02:47:58;;;;;;;11.83;7.10;;;0.20;99.90;;;-1.12;100.00;101204.63;5054310;28;20202;-70
2024/01/07 02:50:26;;;;;;;9.77;6.50;;;0.10;99.90;;;-1.11;100.00;101217.69;5054595;28;20206;-70
2024/01/07 02:52:54;;;;;;;10.57;6.93;;;0.10;99.90;;;-1.07;100.00;101210.53;5054395;28;20320;-70
2024/01/07 02:55:22;;;;;;;13.00;8.10;;;0.20;99.90;;;-1.05;100.00;101221.78;5054492;28;20206;-70
2024/01/07 02:57:50;;;;;;;10.33;7.10;;;0.10;99.90;;;-1.12;100.00;101223.88;5054411;28;20316;-70
2024/01/07 03:00:20;;;;;;;11.77;7.40;;;0.10;99.90;;;-1.16;100.00;101219.69;5054435;28;20209;-70
2024/01/07 03:02:48;;;;;;;11.70;7.60;;;0.10;99.90;;;-1.14;100.00;101219.63;5053986;28;20659;-70
2024/01/07 03:05:17;;;;;;;11.93;6.90;;;0.20;99.90;;;-1.11;100.00;101219.47;5054253;28;20214;-70
2024/01/07 03:07:45;;;;;;;14.17;7.53;;;0.10;99.90;;;-1.06;100.00;101223.56;5054259;28;20198;-70
2024/01/07 03:10:13;;;;;;;11.50;7.47;;;0.10;99.90;;;-1.16;100.00;101224.09;5054234;28;20289;-70
2024/01/07 03:12:42;;;;;;;11.03;7.27;;;0.00;99.90;;;-1.13;100.00;101237.91;5054132;28;20241;-70
2024/01/07 03:15:10;;;;;;;8.63;6.50;;;0.10;99.90;;;-1.13;100.00;101237.09;5054154;28;20206;-70
2024/01/07 03:17:40;;;;;;;10.07;6.40;;;0.20;99.90;;;-1.21;100.00;101236.59;5054051;28;20253;-70
2024/01/07 03:20:10;;;;;;;12.07;6.93;;;0.00;99.90;;;-1.21;100.00;101228.72;5054058;28;20244;-70
2024/01/07 03:22:38;;;;;;;8.90;5.83;;;0.00;99.90;;;-1.23;100.00;101234.03;5053945;28;20272;-70
2024/01/07 03:25:08;;;;;;;10.80;6.87;;;0.00;99.90;;;-1.22;100.00;101241.00;5053969;28;20260;-70
2024/01/07 03:27:36;;;;;;;8.90;6.07;;;0.00;99.90;;;-1.31;100.00;101243.22;5053900;28;20252;-70
2024/01/07 03:30:06;;;;;;;8.90;5.93;;;-0.10;99.90;;;-1.35;100.00;101245.13;5053100;28;20210;-70
2024/01/07 03:32:34;;;;;;;7.07;5.60;;;-0.10;99.90;;;-1.29;100.00;101254.50;5053416;28;20226;-70
2024/01/07 03:35:05;;;;;;;8.40;5.57;;;0.00;99.90;;;-1.28;100.00;101251.81;5053523;28;20221;-70
2024/01/07 03:37:33;;;;;;;8.23;5.10;;;-0.10;99.90;;;-1.37;100.00;101257.47;5053399;28;20755;-70
2024/01/07 03:40:01;;;;;;;6.93;5.20;;;-0.10;99.90;;;-1.46;100.00;101254.44;5053435;28;20679;-70
2024/01/07 03:42:29;;;;;;;7.40;5.27;;;-0.10;99.90;;;-1.37;100.00;101257.47;5053602;28;20222;-70
2024/01/07 03:44:57;;;;;;;8.17;5.33;;;-0.20;99.90;;;-1.36;100.00;101253.94;5053332;28;20695;-70
2024/01/07 03:47:26;;;;;;;6.00;4.47;;;-0.20;99.90;;;-1.40;100.00;101272.53;5053631;28;20225;-70
2024/01/07 03:49:54;;;;;;;6.47;4.80;;;-0.20;99.90;;;-1.34;100.00;101267.00;5053584;28;20202;-70
2024/01/07 03:52:23;;;;;;;8.77;4.90;;;-0.20;99.90;;;-1.34;100.00;101269.63;5053445;28;20317;-70
2024/01/07 03:54:52;;;;;;;7.83;4.70;;;0.00;99.90;;;-1.30;100.00;101279.09;5053516;28;20228;-70
2024/01/07 03:57:20;;;;;;;10.03;5.10;;;0.00;99.90;;;-1.28;100.00;101282.47;5053403;28;20226;-70
2024/01/07 03:59:48;;;;;;;6.03;4.50;;;-0.10;99.90;;;-1.24;100.00;101278.78;5053146;28;20579;-70
2024/01/07 04:02:16;;;;;;;6.80;4.23;;;-0.10;99.90;;;-1.28;100.00;101279.84;5053361;28;20317;-70
2024/01/07 04:04:45;;;;;;;6.90;4.50;;;-0.10;99.90;;;-1.29;100.00;101286.88;5053416;28;20251;-70
2024/01/07 04:07:13;;;;;;;7.60;4.67;;;-0.10;99.90;;;-1.37;100.00;101290.78;5053373;28;20281;-70
2024/01/07 04:09:44;;;;;;;6.30;4.00;;;-0.20;99.90;;;-1.39;100.00;101290.00;5053041;28;20216;-70
2024/01/07 04:12:12;;;;;;;5.50;4.13;;;-0.10;99.90;;;-1.37;100.00;101290.78;5053303;28;20238;-70
2024/01/07 04:14:41;;;;;;;4.70;3.87;;;-0.10;99.90;;;-1.35;100.00;101302.06;5053331;28;20221;-70
2024/01/07 04:17:09;;;;;;;6.13;3.83;;;-0.10;99.90;;;-1.36;100.00;101300.34;5053232;28;20292;-70
2024/01/07 04:19:38;;;;;;;5.60;3.93;;;-0.10;99.90;;;-1.46;100.00;101309.59;5052957;28;20659;-70
2024/01/07 04:22:06;;;;;;;4.43;3.60;;;-0.20;99.90;;;-1.40;100.00;101311.91;5053179;28;20236;-70
2024/01/07 04:24:35;;;;;;;6.90;3.80;;;-0.20;99.90;;;-1.43;100.00;101312.91;5052914;28;20671;-70
2024/01/07 04:27:06;;;;;;;4.77;3.33;;;-0.20;99.90;;;-1.33;100.00;101308.09;5052894;28;20700;-70
2024/01/07 04:29:34;;;;;;;5.70;3.60;;;-0.10;99.90;;;-1.40;100.00;101311.91;5053213;28;20201;-70
2024/01/07 04:32:02;;;;;;;6.43;4.10;;;-0.20;99.90;;;-1.30;100.00;101310.59;5053094;28;20289;-70
2024/01/07 04:34:30;;;;;;;6.83;3.73;;;-0.10;99.90;;;-1.33;100.00;101321.22;5052886;28;20279;-70
2024/01/07 04:36:59;;;;;;;5.20;3.70;;;-0.10;99.90;;;-1.34;100.00;101327.41;5053161;28;20210;-70
2024/01/07 04:39:27;;;;;;;5.63;3.53;;;-0.10;99.90;;;-1.40;100.00;101332.94;5053035;28;20229;-70
2024/01/07 04:41:55;;;;;;;10.17;4.10;;;-0.20;99.90;;;-1.44;100.00;101324.38;5053644;28;20226;-70
2024/01/07 04:44:25;;;;;;;5.37;3.53;;;-0.20;99.90;;;-1.47;100.00;101336.78;5056985;28;20232;-70
2024/01/07 04:46:53;;;;;;;6.43;3.80;;;-0.20;99.90;;;-1.38;100.00;101331.97;5056952;28;20209;-70
2024/01/07 04:49:21;;;;;;;5.37;3.80;;;-0.10;99.90;;;-1.45;100.00;101337.56;5056618;28;20627;-70
2024/01/07 04:51:49;;;;;;;6.03;4.13;;;-0.10;99.90;;;-1.40;100.00;101340.81;5056479;28;20711;-70
2024/01/07 04:54:18;;;;;;;5.37;3.77;;;-0.20;99.90;;;-1.34;100.00;101345.81;5056841;28;20209;-70
2024/01/07 04:56:46;;;;;;;4.80;3.27;;;-0.20;99.90;;;-1.41;100.00;101344.38;5056814;28;20288;-70
2024/01/07 04:59:14;;;;;;;8.10;4.30;;;-0.10;99.90;;;-1.39;100.00;101348.63;5056642;28;20320;-70
2024/01/07 05:01:44;;;;;;;6.33;3.70;;;-0.20;99.90;;;-1.40;100.00;101354.78;5056612;28;20280;-70
2024/01/07 05:04:13;;;;;;;6.23;3.40;;;-0.20;99.90;;;-1.39;100.00;101356.50;5056347;28;20692;-70
2024/01/07 05:06:41;;;;;;;6.60;3.87;;;-0.10;99.90;;;-1.38;100.00;101360.00;5056593;28;20210;-70
2024/01/07 05:09:10;;;;;;;6.73;3.77;;;-0.20;99.90;;;-1.42;100.00;101361.03;5056546;28;20206;-70
2024/01/07 05:11:40;;;;;;;4.47;3.50;;;-0.20;99.90;;;-1.45;100.00;101374.31;5056105;28;20575;-70
2024/01/07 05:14:09;;;;;;;5.20;3.60;;;-0.20;99.90;;;-1.41;100.00;101381.16;5056414;28;20190;-70
2024/01/07 05:16:37;;;;;;;5.33;3.30;;;-0.20;99.90;;;-1.42;100.00;101379.44;5056371;28;20247;-70
2024/01/07 05:19:06;;;;;;;5.57;3.50;;;-0.10;99.90;;;-1.45;100.00;101384.81;5055939;28;20704;-70
2024/01/07 05:21:35;;;;;;;3.63;3.00;;;-0.20;99.90;;;-1.50;100.00;101384.16;5056226;28;20203;-70
2024/01/07 05:24:03;;;;;;;4.17;3.10;;;-0.20;99.90;;;-1.52;100.00;101381.63;5056250;28;20664;-70
2024/01/07 05:26:31;;;;;;;4.77;3.10;;;-0.30;99.90;;;-1.55;100.00;101395.75;5056230;28;20301;-70
2024/01/07 05:28:59;;;;;;;3.93;3.20;;;-0.30;99.90;;;-1.54;100.00;101401.81;5055872;28;20563;-70
2024/01/07 05:31:27;;;;;;;5.60;3.60;;;-0.30;99.90;;;-1.52;100.00;101404.41;5056146;28;20210;-70
2024/01/07 05:33:55;;;;;;;4.83;3.47;;;-0.30;99.90;;;-1.57;100.00;101402.81;5055915;28;20217;-70
2024/01/07 05:36:25;;;;;;;4.63;3.20;;;-0.30;99.90;;;-1.67;100.00;101406.78;5056114;28;20249;-70
2024/01/07 05:38:53;;;;;;;5.67;3.70;;;-0.40;99.90;;;-1.63;100.00;101397.84;5055593;28;20315;-70
2024/01/07 05:41:21;;;;;;;5.23;3.47;;;-0.40;99.90;;;-1.55;100.00;101401.00;5055932;28;20366;-70
2024/01/07 05:43:49;;;;;;;5.10;3.20;;;-0.40;99.90;;;-1.55;100.00;101405.41;5055809;28;20232;-70
2024/01/07 05:46:17;;;;;;;6.23;3.43;;;-0.20;99.90;;;-1.50;100.00;101407.78;5055974;28;20202;-70
2024/01/07 05:48:48;;;;;;;3.67;3.03;;;-0.30;99.90;;;-1.51;100.00;101416.63;5055861;28;20224;-70
2024/01/07 05:51:17;;;;;;;5.17;3.80;;;-0.20;99.90;;;-1.64;100.00;101419.75;5055784;28;20186;-70
2024/01/07 05:53:47;;;;;;;4.10;2.97;;;-0.40;99.90;;;-1.62;100.00;101427.59;5054766;28;20257;-70
2024/01/07 05:56:15;;;;;;;4.43;3.40;;;-0.50;99.90;;;-1.54;100.00;101428.94;5055918;28;20208;-70
2024/01/07 05:58:43;;;;;;;5.67;3.47;;;-0.40;99.90;;;-1.63;100.00;101429.34;5055528;28;20316;-70
2024/01/07 06:01:11;;;;;;;5.37;3.40;;;-0.40;99.90;;;-1.55;100.00;101436.91;5055533;28;20297;-70
2024/01/07 06:03:40;;;;;;;4.50;3.10;;;-0.30;99.90;;;-1.66;100.00;101440.00;5055488;28;20313;-70
2024/01/07 06:06:08;;;;;;;4.70;3.10;;;-0.40;99.90;;;-1.56;100.00;101440.44;5055440;28;20213;-70
2024/01/07 06:08:36;;;;;;;5.17;3.20;;;-0.40;99.90;;;-1.75;100.00;101447.41;5055424;28;20207;-70
2024/01/07 06:11:06;;;;;;;3.87;3.30;;;-0.50;99.90;;;-1.73;100.00;101454.28;5055370;28;20305;-70
2024/01/07 06:13:34;;;;;;;6.23;3.10;;;-0.50;99.90;;;-1.72;100.00;101453.38;5055220;28;20794;-70
2024/01/07 06:16:02;;;;;;;5.37;3.00;;;-0.50;99.90;;;-1.72;100.00;101465.66;5054973;28;20668;-70
2024/01/07 06:18:30;;;;;;;6.10;3.37;;;-0.50;99.90;;;-1.77;100.00;101468.47;5055400;28;20232;-70
2024/01/07 06:20:59;;;;;;;7.23;3.63;;;-0.60;99.90;;;-1.59;100.00;101472.09;5055446;28;20209;-70
2024/01/07 06:23:27;;;;;;;7.77;4.00;;;-0.50;99.90;;;-1.59;100.00;101477.34;5055128;28;20258;-70
2024/01/07 06:25:55;;;;;;;4.60;3.27;;;-0.50;99.90;;;-1.69;100.00;101490.00;5055157;28;20296;-70
2024/01/07 06:28:24;;;;;;;5.93;3.47;;;-0.50;99.90;;;-1.71;100.00;101494.44;5055098;28;20296;-70
2024/01/07 06:30:53;;;;;;;5.60;3.40;;;-0.60;99.90;;;-1.74;100.00;101496.34;5055040;28;20214;-70
2024/01/07 06:33:25;;;;;;;5.80;3.53;;;-0.60;99.90;;;-1.77;100.00;101494.72;5054610;28;20639;-70
2024/01/07 06:35:54;;;;;;;5.13;3.40;;;-0.60;99.90;;;-1.84;100.00;101495.88;5054618;28;20248;-70
2024/01/07 06:38:22;;;;;;;4.70;3.30;;;-0.60;99.90;;;-1.90;100.00;101503.16;5054785;28;20301;-70
2024/01/07 06:40:50;;;;;;;4.20;3.30;;;-0.70;99.90;;;-1.87;100.00;101503.88;5054527;28;20663;-70
2024/01/07 06:43:18;;;;;;;7.07;3.20;;;-0.70;99.90;;;-1.95;100.00;101505.94;5054800;28;20652;-70
2024/01/07 06:45:48;;;;;;;4.93;2.90;;;-0.70;99.90;;;-1.95;100.00;101519.06;5054735;28;20285;-70
2024/01/07 06:48:16;;;;;;;4.60;3.27;;;-0.80;99.90;;;-1.93;100.00;101519.03;5054658;28;20238;-70
2024/01/07 06:50:44;;;;;;;3.97;3.20;;;-0.60;99.90;;;-1.91;100.00;101517.19;5054592;28;20264;-70
2024/01/07 06:53:12;;;;;;;5.77;3.17;;;-0.70;99.90;;;-2.02;100.00;101522.03;5054775;28;20222;-70
2024/01/07 06:55:41;;;;;;;3.93;3.37;;;-0.80;99.90;;;-1.94;100.00;101528.66;5054551;28;20249;-70
2024/01/07 06:58:09;;;;;;;4.90;3.53;;;-0.70;99.90;;;-1.91;100.00;101531.16;5054550;28;20237;-70
2024/01/07 07:00:37;;;;;;;4.67;3.07;;;-0.70;99.90;;;-2.00;100.00;101534.16;5054344;28;20222;-70
2024/01/07 07:03:07;;;;;;;4.57;3.30;;;-0.80;99.90;;;-2.05;100.00;101546.59;5054343;28;20313;-70
2024/01/07 07:05:36;;;;;;;5.37;2.87;;;-0.80;99.90;;;-2.00;100.00;101555.16;5054203;28;20202;-70
2024/01/07 07:08:05;;;;;;;5.00;3.37;;;-0.80;99.90;;;-2.00;100.00;101560.41;5054315;28;20202;-70
2024/01/07 07:10:33;;;;;;;5.23;3.03;;;-0.80;99.90;;;-1.98;100.00;101550.69;5054134;28;20212;-70
2024/01/07 07:13:01;;;;;;;4.97;3.40;;;-0.80;99.90;;;-1.94;100.00;101567.16;5054121;28;20265;-70
2024/01/07 07:15:30;;;;;;;4.77;3.20;;;-0.80;99.90;;;-1.89;100.00;101570.47;5054043;28;20672;-70
2024/01/07 07:17:58;;;;;;;5.73;3.50;;;-0.70;99.90;;;-1.90;100.00;101560.88;5054053;28;20209;-70
2024/01/07 07:20:27;;;;;;;6.07;3.40;;;-0.70;99.90;;;-1.92;100.00;101574.09;5053978;28;20253;-70
2024/01/07 07:22:55;;;;;;;5.83;3.13;;;-0.70;99.90;;;-1.96;100.00;101579.50;5053942;28;20265;-70
2024/01/07 07:25:23;;;;;;;6.13;3.97;;;-0.80;99.90;;;-1.87;100.00;101593.09;5053972;28;20292;-70
2024/01/07 07:27:52;;;;;;;5.07;3.67;;;-0.70;99.90;;;-1.84;100.00;101585.13;5053928;28;20230;-70
2024/01/07 07:30:20;;;;;;;5.37;4.00;;;-0.60;99.90;;;-1.89;100.00;101589.72;5053822;28;20202;-70
2024/01/07 07:32:48;;;;;;;5.13;3.80;;;-0.70;99.90;;;-1.84;100.00;101592.97;5053793;28;20312;-70
2024/01/07 07:35:17;;;;;;;5.37;3.73;;;-0.60;99.90;;;-1.89;100.00;101594.97;5053483;28;20218;-70
2024/01/07 07:37:46;;;;;;;5.80;4.10;;;-0.70;99.90;;;-1.91;100.00;101601.16;5053786;28;20221;-70
2024/01/07 07:40:15;;;;;;;4.63;4.13;;;-0.70;99.90;;;-1.94;100.00;101601.28;5053632;28;20722;-70
2024/01/07 07:42:43;;;;;;;5.37;4.27;;;-0.80;99.90;;;-1.95;100.00;101603.03;5053649;28;20230;-70
2024/01/07 07:45:12;;;;;;;6.83;4.53;;;-0.70;99.90;;;-1.91;100.00;101606.41;5053672;28;20215;-70
2024/01/07 07:47:44;;;;;;;4.20;3.80;;;-0.70;99.90;;;-1.90;100.00;101613.38;5053348;28;20660;-70
2024/01/07 07:50:13;;;;;;;5.60;3.90;;;-0.70;99.90;;;-1.99;100.00;101622.47;5053629;28;20192;-70
2024/01/07 07:52:43;;;;;;;5.57;4.33;;;-0.70;99.90;;;-2.00;100.00;101618.13;5053506;28;20229;-70
2024/01/07 07:55:13;;;;;;;5.37;3.80;;;-0.70;99.90;;;-1.95;100.00;101624.03;5053547;28;20237;-70
2024/01/07 07:57:44;;;;;;;6.90;4.00;;;-0.70;99.90;;;-1.99;100.00;101630.34;5053505;28;20206;-70
2024/01/07 08:00:13;;;;;;;5.63;4.20;;;-0.70;99.90;;;-1.92;100.00;101634.44;5053139;28;20741;-70
2024/01/07 08:02:41;;;;;;;5.03;3.77;;;-0.70;99.90;;;-1.95;100.00;101637.16;5053350;28;20314;-70
2024/01/07 08:05:10;;;;;;;6.17;3.87;;;-0.70;99.90;;;-1.92;100.00;101638.84;5053157;28;20217;-70
2024/01/07 08:07:38;;;;;;;5.17;3.47;;;-0.80;99.90;;;-1.91;100.00;101641.38;5053384;28;20272;-70
2024/01/07 08:10:08;;;;;;;4.90;3.53;;;-0.70;99.90;;;-1.87;100.00;101645.59;5053625;28;20252;-70
2024/01/07 08:12:38;;;;;;;4.27;3.63;;;-0.70;99.90;;;-1.86;100.00;101647.31;5053299;28;20237;-70
2024/01/07 08:15:08;;;;;;;5.67;3.83;;;-0.50;99.90;;;-1.80;100.00;101651.47;5053542;28;20210;-70
2024/01/07 08:17:36;;;;;;;5.70;3.70;;;-0.60;99.90;;;-1.79;100.00;101648.78;5055253;28;20216;-70
2024/01/07 08:20:06;;;;;;;8.03;4.00;;;-0.60;99.90;;;-1.77;100.00;101652.19;5057400;28;20225;-70
2024/01/07 08:22:35;;;;;;;3.73;3.30;;;-0.50;99.90;;;-1.83;100.00;101662.94;5057366;28;20230;-70
2024/01/07 08:25:03;;;;;;;5.60;3.80;;;-0.60;99.90;;;-1.75;100.00;101662.66;5057620;28;20206;-70
2024/01/07 08:27:32;;;;;;;5.33;3.73;;;-0.60;99.90;;;-1.72;100.00;101670.41;5057016;28;20695;-70
2024/01/07 08:30:02;;;;;;;4.27;3.50;;;-0.50;99.90;;;-1.76;100.00;101674.06;5057067;28;20198;-70
2024/01/07 08:32:30;;;;;;;6.37;3.40;;;-0.50;99.90;;;-1.73;100.00;101674.78;5057228;28;20226;-70
2024/01/07 08:34:59;;;;;;;5.47;3.70;;;-0.50;99.90;;;-1.72;100.00;101676.53;5056894;28;20640;-70
2024/01/07 08:37:27;;;;;;;5.50;4.00;;;-0.60;99.90;;;-1.71;100.00;101672.09;5057179;28;20205;-70
2024/01/07 08:39:55;;;;;;;4.40;3.40;;;-0.50;99.90;;;-1.78;100.00;101681.97;5056754;28;20325;-70
2024/01/07 08:42:24;;;;;;;5.37;3.57;;;-0.50;99.90;;;-1.82;100.00;101680.41;5056996;28;20226;-70
2024/01/07 08:44:56;;;;;;;7.23;4.30;;;-0.50;99.90;;;-1.81;100.00;101679.47;5057056;28;20291;-70
2024/01/07 08:47:26;;;;;;;4.63;3.17;;;-0.60;99.90;;;-1.75;100.00;101681.88;5056681;28;20209;-70
2024/01/07 08:49:54;;;;;;;4.00;3.40;;;-0.50;99.90;;;-1.68;100.00;101683.34;5056661;28;20201;-70
2024/01/07 08:52:22;;;;;;;6.27;3.60;;;-0.30;99.90;;;-1.68;100.00;101683.34;5056512;28;20592;-70
2024/01/07 08:54:50;;;;;;;4.90;3.30;;;-0.50;99.90;;;-1.61;100.00;101689.22;5056812;28;20298;-70
2024/01/07 08:57:19;;;;;;;7.23;3.53;;;-0.40;99.90;;;-1.59;100.00;101697.88;5056698;28;20206;-70
2024/01/07 08:59:47;;;;;;;5.27;3.43;;;-0.40;99.90;;;-1.54;100.00;101695.91;5056767;28;20230;-70
2024/01/07 09:02:15;;;;;;;4.33;3.17;;;-0.30;99.90;;;-1.61;100.00;101702.34;5056286;28;20253;-70
2024/01/07 09:04:44;;;;;;;4.83;3.30;;;-0.40;99.90;;;-1.55;100.00;101702.09;5056689;28;20245;-70
2024/01/07 09:07:12;;;;;;;6.83;3.63;;;-0.30;99.90;;;-1.68;100.00;101706.13;5056568;28;20206;-70
2024/01/07 09:09:41;;;;;;;6.53;3.67;;;-0.40;99.90;;;-1.72;100.00;101701.91;5056555;28;20206;-70
2024/01/07 09:12:09;;;;;;;6.17;3.40;;;-0.50;99.90;;;-1.64;100.00;101698.06;5056161;28;20230;-70
2024/01/07 09:14:38;;;;;;;4.20;3.00;;;-0.50;99.90;;;-1.66;100.00;101706.91;5056489;28;20275;-70
2024/01/07 09:17:07;;;;;;;5.40;3.30;;;-0.50;99.90;;;-1.57;100.00;101707.41;5056181;28;20302;-70
2024/01/07 09:19:35;;;;;;;5.20;3.57;;;-0.30;99.90;;;-1.62;100.00;101704.13;5056585;28;20297;-70
2024/01/07 09:22:05;;;;;;;5.23;3.80;;;-0.40;99.90;;;-1.59;100.00;101706.63;5056264;28;20230;-70
2024/01/07 09:24:33;;;;;;;5.00;3.33;;;-0.40;99.90;;;-1.62;100.00;101712.00;5056533;28;20210;-70
2024/01/07 09:27:01;;;;;;;4.83;3.50;;;-0.40;99.90;;;-1.55;100.00;101716.09;5055974;28;20668;-70
2024/01/07 09:29:29;;;;;;;4.83;3.57;;;-0.30;99.90;;;-1.49;100.00;101729.88;5056192;28;20249;-70
2024/01/07 09:31:58;;;;;;;5.77;3.90;;;-0.10;99.90;;;-1.54;100.00;101720.41;5055781;28;20221;-70
2024/01/07 09:34:27;;;;;;;5.13;3.50;;;-0.30;99.90;;;-1.56;100.00;101729.28;5055683;28;20588;-70
2024/01/07 09:36:55;;;;;;;5.03;3.33;;;-0.30;99.90;;;-1.51;100.00;101727.34;5056082;28;20206;-70
2024/01/07 09:39:25;;;;;;;5.53;3.60;;;-0.30;99.90;;;-1.50;100.00;101731.66;5055983;28;20241;-70
2024/01/07 09:41:54;;;;;;;6.10;3.90;;;-0.30;99.90;;;-1.57;100.00;101733.66;5055561;28;20726;-70
2024/01/07 09:44:22;;;;;;;4.47;3.60;;;-0.20;99.90;;;-1.47;100.00;101728.91;5055908;28;20252;-70
2024/01/07 09:46:52;;;;;;;3.63;3.10;;;-0.20;99.90;;;-1.47;100.00;101728.91;5055554;28;20664;-70
2024/01/07 09:49:20;;;;;;;5.50;3.43;;;-0.30;99.90;;;-1.47;100.00;101728.06;5055867;28;20280;-70
2024/01/07 09:51:53;;;;;;;5.00;3.33;;;-0.30;99.90;;;-1.46;100.00;101737.66;5055387;28;20708;-70
2024/01/07 09:54:24;;;;;;;6.33;3.63;;;-0.30;99.90;;;-1.42;100.00;101739.25;5055735;28;20278;-70
2024/01/07 09:57:01;;;;;;;5.07;3.57;;;-0.20;99.90;;;-1.43;100.00;101737.53;5055722;28;20194;-70
2024/01/07 09:59:30;;;;;;;5.30;3.17;;;-0.20;99.90;;;-1.44;100.00;101738.47;5055421;28;20559;-70
2024/01/07 10:01:58;;;;;;;6.13;3.80;;;-0.20;99.90;;;-1.49;100.00;101746.50;5055442;28;20308;-70
2024/01/07 10:04:28;;;;;;;5.13;3.40;;;-0.30;99.90;;;-1.54;100.00;101741.41;5055566;28;20263;-70
2024/01/07 10:06:56;;;;;;;4.70;3.50;;;-0.20;99.90;;;-1.48;100.00;101747.38;5056111;28;20260;-70
2024/01/07 10:09:30;;;;;;;5.77;3.00;;;-0.20;99.90;;;-1.41;100.00;101740.97;5055474;28;20203;-70
2024/01/07 10:11:59;;;;;;;3.83;3.30;;;-0.20;99.90;;;-1.38;100.00;101743.47;5055419;28;20229;-70